Time;durP1;ratioP1;P1;durP2;ratioP2;P2;SDS_P1;SDS_P2;PMS_P1;PMS_P2;Temp;Humidity;BMP_temperature;BMP_pressure;BME280_temperature;BME280_humidity;BME280_pressure;Samples;Min_cycle;Max_cycle;Signal;HPM_P1;HPM_P2
2021/12/15 00:02:11;;;;;;;34.73;31.27;;;8.40;99.90;;;;;;4991539;28;20545;-73
2021/12/15 00:04:38;;;;;;;35.00;31.27;;;8.30;99.90;;;;;;4991420;28;20541;-73
2021/12/15 00:07:05;;;;;;;38.23;33.77;;;8.20;99.90;;;;;;4991267;28;20529;-74
2021/12/15 00:09:34;;;;;;;37.60;33.47;;;8.20;99.90;;;;;;4991394;28;20945;-73
2021/12/15 00:12:03;;;;;;;39.47;35.20;;;8.30;99.90;;;;;;4991293;28;20493;-74
2021/12/15 00:14:31;;;;;;;43.63;35.90;;;8.40;99.90;;;;;;4991314;28;20451;-74
2021/12/15 00:16:58;;;;;;;39.67;35.37;;;8.40;99.90;;;;;;4991305;28;20451;-75
2021/12/15 00:19:27;;;;;;;36.83;32.40;;;8.30;99.90;;;;;;4991236;28;20831;-75
2021/12/15 00:21:53;;;;;;;37.70;32.93;;;8.20;99.90;;;;;;4991262;28;20450;-75
2021/12/15 00:24:20;;;;;;;37.30;32.37;;;8.20;99.90;;;;;;4990726;28;20846;-75
2021/12/15 00:26:48;;;;;;;38.03;30.40;;;8.10;99.90;;;;;;4991194;28;20459;-74
2021/12/15 00:29:15;;;;;;;33.93;30.23;;;8.00;99.90;;;;;;4991268;28;20476;-75
2021/12/15 00:31:42;;;;;;;34.30;30.53;;;8.00;99.90;;;;;;4991082;28;20778;-75
2021/12/15 00:34:10;;;;;;;38.47;33.53;;;8.10;99.90;;;;;;4991148;28;20454;-76
2021/12/15 00:36:37;;;;;;;35.23;31.17;;;8.10;99.90;;;;;;4991145;28;21024;-75
2021/12/15 00:39:06;;;;;;;35.73;32.23;;;8.20;99.90;;;;;;4991334;28;20482;-76
2021/12/15 00:41:32;;;;;;;33.80;30.17;;;8.10;99.90;;;;;;4991032;28;20467;-76
2021/12/15 00:44:01;;;;;;;35.23;31.70;;;8.30;99.90;;;;;;4990910;28;20466;-75
2021/12/15 00:46:27;;;;;;;35.17;31.47;;;8.30;99.90;;;;;;4991206;28;20450;-76
2021/12/15 00:48:55;;;;;;;32.53;29.23;;;8.30;99.90;;;;;;4991300;28;20457;-76
2021/12/15 00:51:21;;;;;;;38.30;34.27;;;8.20;99.90;;;;;;4991728;28;20835;-76
2021/12/15 00:53:48;;;;;;;36.27;32.27;;;8.30;99.90;;;;;;4990974;28;20454;-76
2021/12/15 00:56:15;;;;;;;35.67;31.93;;;8.30;99.90;;;;;;4991263;28;20454;-75
2021/12/15 00:58:42;;;;;;;33.67;30.17;;;8.30;99.90;;;;;;4991037;28;20455;-76
2021/12/15 01:01:10;;;;;;;35.63;31.77;;;8.30;99.90;;;;;;4993757;28;20447;-74
2021/12/15 01:03:37;;;;;;;40.80;34.90;;;8.30;99.90;;;;;;4994811;28;20454;-75
2021/12/15 01:06:09;;;;;;;37.50;33.50;;;8.20;99.90;;;;;;4994667;28;20454;-75
2021/12/15 01:08:41;;;;;;;39.60;34.93;;;8.30;99.90;;;;;;4994938;28;20463;-75
2021/12/15 01:11:18;;;;;;;36.37;32.47;;;8.20;99.90;;;;;;4994771;28;20521;-75
2021/12/15 01:22:22;;;;;;;38.90;34.20;;;7.90;99.90;;;;;;4958548;28;20465;-75
2021/12/15 01:24:49;;;;;;;34.63;31.13;;;8.00;99.90;;;;;;4994533;28;20858;-75
2021/12/15 01:27:16;;;;;;;41.70;33.10;;;8.00;99.90;;;;;;4994722;28;20445;-76
2021/12/15 01:29:43;;;;;;;34.93;30.77;;;8.00;99.90;;;;;;4994439;28;20491;-74
2021/12/15 01:32:11;;;;;;;35.57;31.87;;;7.80;99.90;;;;;;4994123;28;20491;-75
2021/12/15 01:34:38;;;;;;;39.80;31.63;;;7.80;99.90;;;;;;4994328;28;20461;-74
2021/12/15 01:37:05;;;;;;;33.67;30.20;;;7.90;99.90;;;;;;4994060;28;20454;-75
2021/12/15 01:39:32;;;;;;;33.47;30.00;;;8.00;99.90;;;;;;4994458;28;20604;-75
2021/12/15 01:41:59;;;;;;;34.30;30.90;;;8.10;99.90;;;;;;4994114;28;20462;-75
2021/12/15 01:47:12;;;;;;;33.93;30.27;;;8.20;99.90;;;;;;4993824;28;20427;-75
2021/12/15 01:49:41;;;;;;;34.20;30.50;;;8.20;99.90;;;;;;4993953;28;20462;-76
2021/12/15 01:52:14;;;;;;;30.47;27.40;;;8.20;99.90;;;;;;4993937;28;21030;-76
2021/12/15 01:54:43;;;;;;;30.63;27.33;;;8.20;99.90;;;;;;4993839;28;20450;-76
2021/12/15 01:57:11;;;;;;;32.00;28.67;;;8.20;99.90;;;;;;4994137;28;20459;-76
2021/12/15 01:59:39;;;;;;;32.50;29.10;;;8.20;99.90;;;;;;4993867;28;20798;-75
2021/12/15 02:02:07;;;;;;;35.00;30.33;;;8.20;99.90;;;;;;4994013;28;20535;-75
2021/12/15 02:04:37;;;;;;;34.63;31.27;;;8.20;99.90;;;;;;4993377;28;20459;-75
2021/12/15 02:07:07;;;;;;;34.70;30.90;;;8.20;99.90;;;;;;4993704;28;20465;-75
2021/12/15 02:12:25;;;;;;;34.57;31.03;;;8.20;99.90;;;;;;4989248;28;20839;-75
2021/12/15 02:14:52;;;;;;;36.00;32.07;;;8.30;99.90;;;;;;4993404;28;20712;-76
2021/12/15 02:17:20;;;;;;;33.90;30.33;;;8.30;99.90;;;;;;4993683;28;20524;-75
2021/12/15 02:19:48;;;;;;;34.10;30.43;;;8.40;99.90;;;;;;4993907;28;20904;-76
2021/12/15 02:22:17;;;;;;;35.03;31.27;;;8.40;99.90;;;;;;4994018;28;20450;-84
2021/12/15 02:24:46;;;;;;;35.90;32.27;;;8.40;99.90;;;;;;4997512;28;20475;-75
2021/12/15 02:27:14;;;;;;;35.13;31.50;;;8.40;99.90;;;;;;5002630;28;20446;-75
2021/12/15 02:29:45;;;;;;;35.27;31.73;;;8.30;99.90;;;;;;5001121;28;20485;-75
2021/12/15 02:32:19;;;;;;;35.33;31.90;;;8.30;99.90;;;;;;5001536;28;21015;-75
2021/12/15 02:37:04;;;;;;;36.73;31.60;;;8.40;99.90;;;;;;4998559;28;20482;-75
2021/12/15 02:37:44;;;;;;;34.70;31.13;;;8.40;99.90;;;;;;4998158;28;20514;-75
2021/12/15 02:40:18;;;;;;;35.83;32.23;;;8.40;99.90;;;;;;5001364;28;20442;-76
2021/12/15 02:42:48;;;;;;;37.37;32.10;;;8.40;99.90;;;;;;5000451;28;20440;-77
2021/12/15 02:45:18;;;;;;;39.83;32.57;;;8.20;99.90;;;;;;5002111;28;20469;-75
2021/12/15 02:47:45;;;;;;;37.10;31.80;;;8.10;99.90;;;;;;4998065;28;20447;-75
2021/12/15 02:50:16;;;;;;;36.33;32.43;;;8.00;99.90;;;;;;5001303;28;20446;-76
2021/12/15 02:52:44;;;;;;;36.87;32.80;;;8.20;99.90;;;;;;5002405;28;20481;-75
2021/12/15 02:55:12;;;;;;;37.27;32.53;;;8.30;99.90;;;;;;5001419;28;20488;-76
2021/12/15 02:57:39;;;;;;;37.80;31.13;;;8.30;99.90;;;;;;5000072;28;20477;-76
2021/12/15 03:00:17;;;;;;;33.53;30.03;;;8.10;99.90;;;;;;5000643;28;20453;-76
2021/12/15 03:03:33;;;;;;;34.57;31.23;;;8.20;99.90;;;;;;4998121;28;20450;-74
2021/12/15 03:06:05;;;;;;;35.30;31.50;;;8.20;99.90;;;;;;5001461;28;20460;-75
2021/12/15 03:08:50;;;;;;;34.87;31.07;;;8.20;99.90;;;;;;5001623;28;20478;-76
2021/12/15 03:16:46;;;;;;;34.47;31.13;;;8.20;99.90;;;;;;4998703;28;20469;-76
2021/12/15 03:19:13;;;;;;;35.97;32.20;;;8.20;99.90;;;;;;5000715;28;20446;-76
2021/12/15 03:21:40;;;;;;;33.00;29.50;;;8.20;99.90;;;;;;5002348;28;20848;-76
2021/12/15 03:24:13;;;;;;;35.40;31.63;;;8.10;99.90;;;;;;5002255;28;20485;-77
2021/12/15 03:26:48;;;;;;;35.97;32.03;;;8.20;99.90;;;;;;5002606;28;20442;-76
2021/12/15 03:35:02;;;;;;;36.00;32.30;;;8.40;99.90;;;;;;4997451;28;20442;-76
2021/12/15 03:37:32;;;;;;;32.53;29.30;;;8.40;99.90;;;;;;4998626;28;20482;-76
2021/12/15 03:40:09;;;;;;;33.77;30.27;;;8.40;99.90;;;;;;4999883;28;20453;-75
2021/12/15 03:42:41;;;;;;;33.50;30.30;;;8.50;99.90;;;;;;4998916;28;20447;-75
2021/12/15 03:45:11;;;;;;;33.90;30.50;;;8.40;99.90;;;;;;4999513;28;20937;-75
2021/12/15 03:47:41;;;;;;;31.70;28.67;;;8.40;99.90;;;;;;5000597;28;20455;-74
2021/12/15 03:50:11;;;;;;;28.50;25.57;;;8.40;99.90;;;;;;4991807;28;20486;-74
2021/12/15 03:52:38;;;;;;;30.37;27.17;;;8.40;99.90;;;;;;4991731;28;20981;-74
2021/12/15 03:55:08;;;;;;;32.13;28.83;;;8.40;99.90;;;;;;4991372;28;20466;-75
2021/12/15 03:57:35;;;;;;;32.10;28.90;;;8.40;99.90;;;;;;4991843;28;20451;-76
2021/12/15 04:03:30;;;;;;;35.87;32.17;;;8.10;99.90;;;;;;4991718;28;20406;-76
2021/12/15 04:06:01;;;;;;;37.10;33.73;;;8.10;99.90;;;;;;4991505;28;20532;-76
2021/12/15 04:08:30;;;;;;;34.20;30.80;;;8.10;99.90;;;;;;4996993;28;20439;-75
2021/12/15 04:14:44;;;;;;;28.47;26.03;;;8.10;99.90;;;;;;5008041;28;20457;-76
2021/12/15 04:17:26;;;;;;;26.47;24.17;;;8.10;99.90;;;;;;4991945;28;21012;-76
2021/12/15 04:19:55;;;;;;;27.37;25.10;;;8.00;99.90;;;;;;4999491;28;20461;-76
2021/12/15 04:22:22;;;;;;;26.63;24.20;;;8.00;99.90;;;;;;5000299;28;20912;-76
2021/12/15 04:24:49;;;;;;;30.20;27.50;;;8.10;99.90;;;;;;4996338;28;20485;-76
2021/12/15 04:27:16;;;;;;;28.30;25.70;;;8.10;99.90;;;;;;4999756;28;20445;-76
2021/12/15 04:29:46;;;;;;;28.07;25.17;;;8.00;99.90;;;;;;5000846;28;20458;-76
2021/12/15 04:32:18;;;;;;;27.60;25.10;;;7.90;99.90;;;;;;4997089;28;20791;-76
2021/12/15 04:34:44;;;;;;;29.50;26.77;;;7.90;99.90;;;;;;4998456;28;20439;-76
2021/12/15 04:37:11;;;;;;;28.60;26.07;;;7.90;99.90;;;;;;4992610;28;20508;-76
2021/12/15 04:39:38;;;;;;;28.90;26.10;;;7.90;99.90;;;;;;4990588;28;20463;-75
2021/12/15 04:42:05;;;;;;;28.17;25.67;;;8.00;99.90;;;;;;4990428;28;21059;-75
2021/12/15 04:44:35;;;;;;;27.43;24.83;;;8.10;99.90;;;;;;4991016;28;20508;-75
2021/12/15 04:47:09;;;;;;;26.83;24.43;;;8.20;99.90;;;;;;4991158;28;20848;-75
2021/12/15 04:49:39;;;;;;;25.10;23.00;;;8.20;99.90;;;;;;4991058;28;20549;-75
2021/12/15 04:52:07;;;;;;;25.53;23.53;;;8.10;99.90;;;;;;4990772;28;20490;-76
2021/12/15 04:54:34;;;;;;;23.07;21.17;;;8.20;99.90;;;;;;4991083;28;20447;-75
2021/12/15 04:57:02;;;;;;;24.00;22.00;;;8.10;99.90;;;;;;4990698;28;20474;-75
2021/12/15 04:59:29;;;;;;;24.50;22.40;;;8.10;99.90;;;;;;4990648;28;20458;-75
2021/12/15 05:01:56;;;;;;;23.43;21.63;;;8.00;99.90;;;;;;4990840;28;20455;-75
2021/12/15 05:04:24;;;;;;;25.87;23.63;;;8.00;99.90;;;;;;4990994;28;20450;-75
2021/12/15 05:06:51;;;;;;;23.50;21.73;;;8.00;99.90;;;;;;4990396;28;20457;-75
2021/12/15 05:09:18;;;;;;;21.40;19.77;;;8.00;99.90;;;;;;4990921;28;20455;-75
2021/12/15 05:11:47;;;;;;;23.20;21.47;;;7.90;99.90;;;;;;4990448;28;20486;-76
2021/12/15 05:14:14;;;;;;;28.83;26.00;;;8.00;99.90;;;;;;4990886;28;20962;-78
2021/12/15 05:16:41;;;;;;;26.30;23.97;;;7.90;99.90;;;;;;4990847;28;20454;-77
2021/12/15 05:19:08;;;;;;;25.33;23.13;;;7.90;99.90;;;;;;4990670;28;20466;-76
2021/12/15 05:21:36;;;;;;;24.47;22.43;;;7.80;99.90;;;;;;4990827;28;20447;-77
2021/12/15 05:24:12;;;;;;;27.27;24.50;;;7.80;99.90;;;;;;4990761;28;20840;-77
2021/12/15 05:26:39;;;;;;;30.77;27.73;;;7.80;99.90;;;;;;4990810;28;20464;-77
2021/12/15 05:29:06;;;;;;;28.20;25.53;;;7.90;99.90;;;;;;4990726;28;20466;-77
2021/12/15 05:31:33;;;;;;;25.57;23.47;;;8.10;99.90;;;;;;4990305;28;20462;-76
2021/12/15 05:34:02;;;;;;;22.57;20.67;;;8.20;99.90;;;;;;4990493;28;20462;-76
2021/12/15 05:36:29;;;;;;;23.03;21.13;;;8.20;99.90;;;;;;4991032;28;20451;-76
2021/12/15 05:38:57;;;;;;;20.37;18.90;;;8.30;99.90;;;;;;4990537;28;20853;-76
2021/12/15 05:41:24;;;;;;;19.17;17.67;;;8.30;99.90;;;;;;4990439;28;20450;-77
2021/12/15 05:43:51;;;;;;;19.93;18.53;;;8.20;99.90;;;;;;4990487;28;20933;-77
2021/12/15 05:46:18;;;;;;;19.40;18.00;;;8.20;99.90;;;;;;4990666;28;20450;-76
2021/12/15 05:48:44;;;;;;;19.50;18.30;;;8.10;99.90;;;;;;4993777;28;20920;-75
2021/12/15 05:51:11;;;;;;;14.73;13.93;;;8.00;99.90;;;;;;4994066;28;20520;-76
2021/12/15 05:53:38;;;;;;;17.83;16.63;;;7.90;99.90;;;;;;4993585;28;21012;-75
2021/12/15 05:56:07;;;;;;;16.23;15.43;;;7.80;99.90;;;;;;4993452;28;20454;-75
2021/12/15 05:58:34;;;;;;;16.57;15.57;;;7.80;99.90;;;;;;4993461;28;20814;-77
2021/12/15 06:01:01;;;;;;;17.20;16.20;;;7.90;99.90;;;;;;4993545;28;20858;-76
2021/12/15 06:03:27;;;;;;;17.63;16.23;;;8.00;99.90;;;;;;4993920;28;20875;-76
2021/12/15 06:05:54;;;;;;;19.23;17.87;;;8.10;99.90;;;;;;4993876;28;20451;-78
2021/12/15 06:08:21;;;;;;;19.57;18.30;;;8.10;99.90;;;;;;4993474;28;20455;-77
2021/12/15 06:10:48;;;;;;;19.00;17.60;;;8.10;99.90;;;;;;4993649;28;20459;-77
2021/12/15 06:13:16;;;;;;;21.30;19.70;;;8.20;99.90;;;;;;4993399;28;20494;-77
2021/12/15 06:15:44;;;;;;;21.87;20.20;;;8.10;99.90;;;;;;4993953;28;20472;-75
2021/12/15 06:18:14;;;;;;;21.70;20.07;;;8.00;99.90;;;;;;4993395;28;20454;-76
2021/12/15 06:20:42;;;;;;;21.30;19.50;;;8.00;99.90;;;;;;4993223;28;20513;-79
2021/12/15 06:23:15;;;;;;;22.40;20.70;;;7.90;99.90;;;;;;4992912;28;21197;-76
2021/12/15 06:25:42;;;;;;;21.40;19.50;;;8.00;99.90;;;;;;4993387;28;20461;-76
2021/12/15 06:28:09;;;;;;;23.07;21.20;;;8.00;99.90;;;;;;4993113;28;20941;-76
2021/12/15 06:30:38;;;;;;;26.40;24.20;;;8.10;99.90;;;;;;4993403;28;20459;-76
2021/12/15 06:33:06;;;;;;;24.90;22.90;;;8.00;99.90;;;;;;4992450;28;20549;-76
2021/12/15 06:35:34;;;;;;;24.73;22.63;;;7.90;99.90;;;;;;4993201;28;20451;-76
2021/12/15 06:38:01;;;;;;;25.33;23.17;;;8.00;99.90;;;;;;4992762;28;20447;-76
2021/12/15 06:40:27;;;;;;;27.53;25.20;;;7.90;99.90;;;;;;4992698;28;20639;-76
2021/12/15 06:42:54;;;;;;;25.67;23.50;;;7.90;99.90;;;;;;4992676;28;20458;-76
2021/12/15 06:45:27;;;;;;;25.17;23.27;;;7.90;99.90;;;;;;4992777;28;20462;-76
2021/12/15 06:58:52;;;;;;;26.50;24.10;;;8.10;99.90;;;;;;4992134;28;20448;-75
2021/12/15 07:01:19;;;;;;;27.90;25.40;;;8.10;99.90;;;;;;4992582;28;20459;-76
2021/12/15 07:03:47;;;;;;;27.17;24.73;;;8.10;99.90;;;;;;4992490;28;20461;-77
2021/12/15 07:06:13;;;;;;;27.57;25.20;;;8.00;99.90;;;;;;4992364;28;20458;-76
2021/12/15 07:08:40;;;;;;;26.67;24.30;;;8.10;99.90;;;;;;4992059;28;20461;-75
2021/12/15 07:11:07;;;;;;;27.97;25.77;;;8.10;99.90;;;;;;4992251;28;20450;-75
2021/12/15 07:13:35;;;;;;;26.27;23.90;;;8.10;99.90;;;;;;4992231;28;20597;-75
2021/12/15 07:16:07;;;;;;;25.50;23.50;;;8.10;99.90;;;;;;4992006;28;20509;-75
2021/12/15 07:18:43;;;;;;;26.17;23.97;;;8.20;99.90;;;;;;4992109;28;20457;-76
2021/12/15 07:21:17;;;;;;;27.47;25.03;;;8.20;99.90;;;;;;5003318;28;20453;-76
2021/12/15 07:23:45;;;;;;;26.97;24.27;;;8.10;99.90;;;;;;5020116;28;20517;-77
2021/12/15 07:26:12;;;;;;;26.27;23.60;;;8.10;99.90;;;;;;5016800;28;20496;-84
2021/12/15 07:28:40;;;;;;;27.80;25.30;;;8.10;99.90;;;;;;5012031;28;20446;-78
2021/12/15 07:31:07;;;;;;;27.50;25.17;;;8.00;99.90;;;;;;5011126;28;20462;-76
2021/12/15 07:33:34;;;;;;;28.47;25.97;;;7.90;99.90;;;;;;5010907;28;20489;-75
2021/12/15 07:36:01;;;;;;;27.07;24.77;;;8.00;99.90;;;;;;5010693;28;20445;-75
2021/12/15 07:38:29;;;;;;;27.77;25.37;;;8.00;99.90;;;;;;5010800;28;20458;-76
2021/12/15 07:40:56;;;;;;;25.10;23.20;;;8.10;99.90;;;;;;5011080;28;20453;-75
2021/12/15 07:43:25;;;;;;;25.60;23.50;;;8.10;99.90;;;;;;5011137;28;20451;-76
2021/12/15 07:45:56;;;;;;;24.37;22.57;;;8.00;99.90;;;;;;5010958;28;20530;-75
2021/12/15 07:48:27;;;;;;;25.37;23.17;;;8.00;99.90;;;;;;5010976;28;20450;-77
2021/12/15 07:50:58;;;;;;;25.07;22.93;;;7.80;99.90;;;;;;5011082;28;20485;-78
2021/12/15 07:53:25;;;;;;;24.10;22.10;;;7.80;99.90;;;;;;5010679;28;20481;-78
2021/12/15 07:55:54;;;;;;;24.40;22.50;;;7.80;99.90;;;;;;5010723;28;20520;-79
2021/12/15 07:58:22;;;;;;;23.00;21.30;;;7.70;99.90;;;;;;5010901;28;20453;-78
2021/12/15 08:00:50;;;;;;;20.97;19.37;;;7.70;99.90;;;;;;5010895;28;20453;-77
2021/12/15 08:03:18;;;;;;;19.00;17.80;;;7.70;99.90;;;;;;5010917;28;20454;-77
2021/12/15 08:05:47;;;;;;;22.33;20.63;;;7.60;99.90;;;;;;5010575;28;20456;-76
2021/12/15 08:08:14;;;;;;;25.80;23.70;;;7.50;99.90;;;;;;5010701;28;20454;-76
2021/12/15 08:10:42;;;;;;;20.90;19.30;;;7.60;99.90;;;;;;5010389;28;20457;-76
2021/12/15 08:13:11;;;;;;;20.47;18.93;;;7.70;99.90;;;;;;5010733;28;20496;-76
2021/12/15 08:15:39;;;;;;;22.00;20.37;;;7.60;99.90;;;;;;5010448;28;20449;-76
2021/12/15 08:18:05;;;;;;;21.43;19.90;;;7.60;99.90;;;;;;5010628;28;20480;-77
2021/12/15 08:20:35;;;;;;;21.07;19.43;;;7.70;99.90;;;;;;5010784;28;20450;-78
2021/12/15 08:23:01;;;;;;;21.20;19.73;;;7.70;99.90;;;;;;5010293;28;20473;-77
2021/12/15 08:25:29;;;;;;;20.53;18.90;;;7.80;99.90;;;;;;5010465;28;20462;-77
2021/12/15 08:27:56;;;;;;;19.50;18.20;;;7.80;99.90;;;;;;5010468;28;20514;-78
2021/12/15 08:30:26;;;;;;;21.90;20.10;;;7.80;99.90;;;;;;5010701;28;20943;-77
2021/12/15 08:32:56;;;;;;;23.73;21.80;;;7.90;99.90;;;;;;5010296;28;21050;-76
2021/12/15 08:35:27;;;;;;;22.90;21.10;;;7.80;99.90;;;;;;5010396;28;21115;-77
2021/12/15 08:37:55;;;;;;;22.67;20.77;;;7.80;99.90;;;;;;5010704;28;20488;-77
2021/12/15 08:40:23;;;;;;;22.00;20.37;;;7.90;99.90;;;;;;5026816;28;20454;-75
2021/12/15 08:42:50;;;;;;;21.10;19.47;;;7.80;99.90;;;;;;5034658;28;20444;-76
2021/12/15 08:45:17;;;;;;;22.23;20.50;;;7.90;99.90;;;;;;5034302;28;20438;-75
2021/12/15 08:47:45;;;;;;;23.43;21.67;;;7.70;99.90;;;;;;5014931;28;20453;-76
2021/12/15 08:50:17;;;;;;;21.83;19.97;;;7.70;99.90;;;;;;5015168;28;20519;-77
2021/12/15 08:52:44;;;;;;;18.40;17.10;;;7.70;99.90;;;;;;5013192;28;20593;-77
2021/12/15 08:55:11;;;;;;;19.80;18.50;;;7.70;99.90;;;;;;5009996;28;20515;-77
2021/12/15 08:57:46;;;;;;;21.07;19.50;;;7.70;99.90;;;;;;5009899;28;20487;-77
2021/12/15 09:00:13;;;;;;;21.47;19.77;;;7.70;99.90;;;;;;5009733;28;20531;-76
2021/12/15 09:02:40;;;;;;;17.63;16.23;;;7.80;99.90;;;;;;5009638;28;20460;-76
2021/12/15 09:05:10;;;;;;;19.17;17.67;;;7.80;99.90;;;;;;5010025;28;20454;-76
2021/12/15 09:07:36;;;;;;;19.30;17.83;;;7.70;99.90;;;;;;5009856;28;20449;-76
2021/12/15 09:10:04;;;;;;;19.83;18.40;;;7.80;99.90;;;;;;5009973;28;20456;-77
2021/12/15 09:12:31;;;;;;;18.33;16.97;;;7.80;99.90;;;;;;5009823;28;20466;-77
2021/12/15 09:14:58;;;;;;;17.60;16.50;;;7.80;99.90;;;;;;5009904;28;20460;-77
2021/12/15 09:17:24;;;;;;;17.80;16.50;;;7.90;99.90;;;;;;5009547;28;20457;-76
2021/12/15 09:19:51;;;;;;;19.20;17.87;;;7.80;99.90;;;;;;5009800;28;20512;-78
2021/12/15 09:22:19;;;;;;;19.17;17.87;;;7.90;99.90;;;;;;5010861;28;20476;-77
2021/12/15 09:24:46;;;;;;;23.53;18.30;;;7.90;99.90;;;;;;5013305;28;20477;-76
2021/12/15 09:27:13;;;;;;;18.13;16.50;;;8.00;99.90;;;;;;5013492;28;20456;-77
2021/12/15 09:29:39;;;;;;;18.23;16.83;;;8.10;99.90;;;;;;5013483;28;20450;-77
2021/12/15 09:32:07;;;;;;;16.30;15.10;;;8.10;99.90;;;;;;5013160;28;20454;-76
2021/12/15 09:34:35;;;;;;;18.67;17.27;;;8.00;99.90;;;;;;5013330;28;20481;-77
2021/12/15 09:37:04;;;;;;;18.63;17.27;;;8.00;99.90;;;;;;5013397;28;20465;-77
2021/12/15 09:39:33;;;;;;;19.17;17.77;;;8.00;99.90;;;;;;5013182;28;20561;-76
2021/12/15 09:42:00;;;;;;;18.77;17.27;;;8.00;99.90;;;;;;5013091;28;20442;-76
2021/12/15 09:44:28;;;;;;;18.57;17.37;;;8.10;99.90;;;;;;5012898;28;20809;-77
2021/12/15 09:47:21;;;;;;;17.83;16.53;;;8.20;99.90;;;;;;5013020;28;20646;-76
2021/12/15 10:03:46;;;;;;;15.67;14.67;;;8.20;99.90;;;;;;5012461;28;20421;-76
2021/12/15 10:06:44;;;;;;;14.77;13.90;;;8.30;99.90;;;;;;5012822;28;20539;-75
2021/12/15 10:12:20;;;;;;;13.50;12.80;;;8.10;99.90;;;;;;5012694;28;20433;-77
2021/12/15 10:17:45;;;;;;;13.60;12.90;;;8.10;99.90;;;;;;5012688;28;20587;-77
2021/12/15 10:20:18;;;;;;;14.30;13.50;;;8.10;99.90;;;;;;5012526;28;20476;-77
2021/12/15 10:22:47;;;;;;;16.43;15.33;;;8.10;99.90;;;;;;5012331;28;21049;-77
2021/12/15 10:25:18;;;;;;;14.30;13.50;;;8.10;99.90;;;;;;5012504;28;20492;-78
2021/12/15 10:27:49;;;;;;;13.63;13.00;;;8.10;99.90;;;;;;5012681;28;20862;-78
2021/12/15 10:30:23;;;;;;;14.90;14.00;;;8.10;99.90;;;;;;5012412;28;20453;-77
2021/12/15 10:32:54;;;;;;;14.13;13.43;;;8.10;99.90;;;;;;5012117;28;20453;-77
2021/12/15 10:35:23;;;;;;;15.30;14.40;;;8.20;99.90;;;;;;5012460;28;20438;-77
2021/12/15 10:38:15;;;;;;;19.03;17.70;;;8.30;99.90;;;;;;5012041;28;20450;-77
2021/12/15 10:40:45;;;;;;;18.00;16.50;;;8.20;99.90;;;;;;5011817;28;20553;-76
2021/12/15 10:43:14;;;;;;;15.70;14.80;;;8.10;99.90;;;;;;5011970;28;20449;-76
2021/12/15 10:45:43;;;;;;;14.30;13.40;;;8.00;99.90;;;;;;5012115;28;20446;-76
2021/12/15 10:48:20;;;;;;;15.40;14.60;;;7.90;99.90;;;;;;5011821;28;20457;-76
2021/12/15 10:50:48;;;;;;;15.17;14.27;;;7.80;99.90;;;;;;5011676;28;20824;-77
2021/12/15 10:53:15;;;;;;;16.20;15.07;;;7.90;99.90;;;;;;5011633;28;20445;-77
2021/12/15 10:55:42;;;;;;;16.37;15.47;;;7.90;99.90;;;;;;5011654;28;20884;-76
2021/12/15 10:58:33;;;;;;;17.17;16.00;;;7.90;99.90;;;;;;5011763;28;20473;-76
2021/12/15 11:01:00;;;;;;;16.00;15.00;;;8.00;99.90;;;;;;5011498;28;20979;-76
2021/12/15 11:03:33;;;;;;;14.97;14.17;;;8.10;99.90;;;;;;5011476;28;20449;-76
2021/12/15 11:06:00;;;;;;;15.33;14.53;;;8.10;99.90;;;;;;5011413;28;20450;-76
2021/12/15 11:08:27;;;;;;;16.40;15.50;;;8.10;99.90;;;;;;5011500;28;20446;-76
2021/12/15 11:10:54;;;;;;;14.70;13.57;;;8.10;99.90;;;;;;5011522;28;20461;-76
2021/12/15 11:13:23;;;;;;;14.73;13.93;;;8.20;99.90;;;;;;5011281;28;20454;-77
2021/12/15 11:15:53;;;;;;;15.00;14.20;;;8.10;99.90;;;;;;5011693;28;20450;-76
2021/12/15 11:18:22;;;;;;;15.90;15.00;;;8.10;99.90;;;;;;5011447;28;21061;-77
2021/12/15 11:20:52;;;;;;;15.07;14.17;;;8.20;99.90;;;;;;5011852;28;20492;-77
2021/12/15 11:23:20;;;;;;;15.80;15.00;;;8.40;99.90;;;;;;5011472;28;20481;-76
2021/12/15 11:25:50;;;;;;;15.40;14.07;;;8.40;99.90;;;;;;5011482;28;20449;-79
2021/12/15 11:28:21;;;;;;;14.80;14.10;;;8.20;99.90;;;;;;5011072;28;20508;-78
2021/12/15 11:30:54;;;;;;;14.70;14.00;;;8.10;99.90;;;;;;5011660;28;20813;-76
2021/12/15 11:33:23;;;;;;;14.77;13.87;;;8.10;99.90;;;;;;5011304;28;20464;-78
2021/12/15 11:35:54;;;;;;;15.77;14.90;;;8.30;99.90;;;;;;5011244;28;20465;-77
2021/12/15 11:38:24;;;;;;;17.50;16.40;;;8.30;99.90;;;;;;5011548;28;20656;-77
2021/12/15 11:41:03;;;;;;;16.77;15.77;;;8.30;99.90;;;;;;5011277;28;20457;-77
2021/12/15 11:43:35;;;;;;;17.87;16.70;;;8.30;99.90;;;;;;5010982;28;20461;-77
2021/12/15 11:46:12;;;;;;;18.80;17.50;;;8.40;99.90;;;;;;5010258;28;20450;-76
2021/12/15 11:48:40;;;;;;;19.30;18.00;;;8.40;99.90;;;;;;5010854;28;20445;-76
2021/12/15 11:51:08;;;;;;;17.83;16.70;;;8.30;99.90;;;;;;5010686;28;20450;-76
2021/12/15 11:53:39;;;;;;;17.50;16.40;;;8.30;99.90;;;;;;5010825;28;20449;-78
2021/12/15 11:56:18;;;;;;;15.77;14.67;;;8.20;99.90;;;;;;5010852;28;20454;-77
2021/12/15 11:58:46;;;;;;;14.77;13.93;;;8.30;99.90;;;;;;5011113;28;20445;-77
2021/12/15 12:01:43;;;;;;;14.93;13.93;;;8.40;99.90;;;;;;5010525;28;20453;-77
2021/12/15 12:04:14;;;;;;;13.93;13.03;;;8.40;99.90;;;;;;5010615;28;20438;-77
2021/12/15 12:06:41;;;;;;;12.53;11.93;;;8.50;99.90;;;;;;5010813;28;20559;-77
2021/12/15 12:09:08;;;;;;;12.53;11.83;;;8.60;99.90;;;;;;5010623;28;20573;-76
2021/12/15 12:11:40;;;;;;;12.60;12.03;;;8.60;99.90;;;;;;5010598;28;20473;-77
2021/12/15 12:14:16;;;;;;;13.47;12.77;;;8.50;99.90;;;;;;5010438;28;20919;-76
2021/12/15 12:16:44;;;;;;;12.63;12.03;;;8.40;99.90;;;;;;5010743;28;20726;-77
2021/12/15 12:19:13;;;;;;;12.87;12.37;;;8.40;99.90;;;;;;5010548;28;20597;-76
2021/12/15 12:21:41;;;;;;;13.57;12.73;;;8.30;99.90;;;;;;5010455;28;20453;-76
2021/12/15 12:24:11;;;;;;;13.50;12.80;;;8.30;99.90;;;;;;5010399;28;20489;-76
2021/12/15 12:26:38;;;;;;;13.90;13.20;;;8.30;99.90;;;;;;5010490;28;20454;-76
2021/12/15 12:29:05;;;;;;;14.33;13.20;;;8.30;99.90;;;;;;5010461;28;20454;-76
2021/12/15 12:31:33;;;;;;;14.47;13.77;;;8.30;99.90;;;;;;5010167;28;20454;-76
2021/12/15 12:34:01;;;;;;;14.13;13.43;;;8.20;99.90;;;;;;5010589;28;20886;-76
2021/12/15 12:36:30;;;;;;;13.50;12.90;;;8.20;99.90;;;;;;5010436;28;20450;-77
2021/12/15 12:39:01;;;;;;;14.20;13.50;;;8.30;99.90;;;;;;5010253;28;20462;-77
2021/12/15 12:41:30;;;;;;;13.53;12.93;;;8.40;99.90;;;;;;5010543;28;20453;-79
2021/12/15 12:43:58;;;;;;;13.57;12.97;;;8.40;99.90;;;;;;5010261;28;20667;-77
2021/12/15 12:46:34;;;;;;;12.87;12.27;;;8.40;99.90;;;;;;5010213;28;20457;-78
2021/12/15 12:49:28;;;;;;;13.20;12.60;;;8.40;99.90;;;;;;5010292;28;20481;-77
2021/12/15 13:00:44;;;;;;;13.60;12.90;;;8.40;99.90;;;;;;4998373;28;20564;-76
2021/12/15 13:03:17;;;;;;;12.60;12.00;;;8.40;99.90;;;;;;5015353;28;20442;-77
2021/12/15 13:05:47;;;;;;;14.37;13.67;;;8.40;99.90;;;;;;5019698;28;20445;-77
2021/12/15 13:08:17;;;;;;;13.40;12.80;;;8.20;99.90;;;;;;5018455;28;21142;-78
2021/12/15 13:11:06;;;;;;;13.60;13.00;;;8.10;99.90;;;;;;5015474;28;20446;-77
2021/12/15 13:13:35;;;;;;;13.87;13.10;;;8.10;99.90;;;;;;5013814;28;20546;-78
2021/12/15 13:16:06;;;;;;;12.60;12.00;;;8.00;99.90;;;;;;5013530;28;20493;-78
2021/12/15 13:18:47;;;;;;;14.13;13.43;;;8.00;99.90;;;;;;5013574;28;20449;-76
2021/12/15 13:21:19;;;;;;;13.07;12.47;;;8.00;99.90;;;;;;5013571;28;20461;-77
2021/12/15 13:23:50;;;;;;;13.87;13.27;;;8.10;99.90;;;;;;5013352;28;20492;-76
2021/12/15 13:29:37;;;;;;;13.20;12.60;;;8.20;99.90;;;;;;5013712;28;20841;-78
2021/12/15 13:32:05;;;;;;;14.10;13.40;;;8.30;99.90;;;;;;5013722;28;20480;-78
2021/12/15 13:34:42;;;;;;;11.80;11.30;;;8.10;99.90;;;;;;5013141;28;20838;-75
2021/12/15 13:37:11;;;;;;;13.00;12.40;;;8.10;99.90;;;;;;5013395;28;20864;-78
2021/12/15 13:39:44;;;;;;;13.90;13.20;;;8.10;99.90;;;;;;5013228;28;20472;-77
2021/12/15 13:42:14;;;;;;;14.43;13.73;;;8.30;99.90;;;;;;5013198;28;20458;-76
2021/12/15 13:44:43;;;;;;;14.40;13.70;;;8.30;99.90;;;;;;5013087;28;20447;-76
2021/12/15 13:47:18;;;;;;;14.30;13.57;;;8.40;99.90;;;;;;5012933;28;20896;-76
2021/12/15 13:49:46;;;;;;;13.30;12.70;;;8.40;99.90;;;;;;5012908;28;20459;-77
2021/12/15 13:52:29;;;;;;;13.30;12.70;;;8.40;99.90;;;;;;5012945;28;20758;-78
2021/12/15 13:55:00;;;;;;;13.47;12.67;;;8.30;99.90;;;;;;5013052;28;20495;-77
2021/12/15 13:57:31;;;;;;;14.93;13.93;;;8.20;99.90;;;;;;5012981;28;20457;-75
2021/12/15 14:00:07;;;;;;;14.00;13.30;;;8.00;99.90;;;;;;5012840;28;20458;-76
2021/12/15 14:02:36;;;;;;;14.20;13.50;;;8.00;99.90;;;;;;5012814;28;20460;-76
2021/12/15 14:05:09;;;;;;;13.57;12.87;;;8.10;99.90;;;;;;5012586;28;20801;-76